createdAt,value
2018-12-29T00:01:48.116Z,0.55
2018-12-29T00:04:36.930Z,0.55
2018-12-29T00:07:25.768Z,0.62
2018-12-29T00:10:14.567Z,0.62
2018-12-29T00:13:03.393Z,0.60
2018-12-29T00:15:52.181Z,0.62
2018-12-29T00:18:41.005Z,0.58
2018-12-29T00:21:29.827Z,0.62
2018-12-29T00:24:18.620Z,0.51
2018-12-29T00:26:59.931Z,0.48
2018-12-29T00:29:48.725Z,0.47
2018-12-29T00:32:37.812Z,0.50
2018-12-29T00:35:26.612Z,0.55
2018-12-29T00:38:15.437Z,-0.97
2018-12-29T00:41:04.230Z,0.67
2018-12-29T00:43:53.143Z,-0.94
2018-12-29T00:46:41.924Z,0.78
2018-12-29T00:49:30.769Z,0.71
2018-12-29T00:52:19.565Z,0.76
2018-12-29T00:55:08.386Z,-1.11
2018-12-29T00:57:57.179Z,0.58
2018-12-29T01:00:45.995Z,0.58
2018-12-29T01:03:34.809Z,0.51
2018-12-29T01:06:23.606Z,0.53
2018-12-29T01:09:12.443Z,0.50
2018-12-29T01:12:01.234Z,0.55
2018-12-29T01:14:50.055Z,0.39
2018-12-29T01:17:38.867Z,0.37
2018-12-29T01:20:27.688Z,0.38
2018-12-29T01:23:16.483Z,0.51
2018-12-29T01:25:58.159Z,-0.78
2018-12-29T01:28:46.960Z,0.51
2018-12-29T01:31:35.770Z,0.64
2018-12-29T01:34:24.569Z,0.60
2018-12-29T01:37:13.387Z,-1.19
2018-12-29T01:40:02.187Z,0.64
2018-12-29T01:42:51.014Z,-0.48
2018-12-29T01:45:39.812Z,0.57
2018-12-29T01:48:28.654Z,0.62
2018-12-29T01:51:17.469Z,0.56
2018-12-29T01:54:06.270Z,0.57
2018-12-29T01:56:55.073Z,0.50
2018-12-29T01:59:43.890Z,0.41
2018-12-29T02:02:32.692Z,-1.19
2018-12-29T02:05:21.518Z,0.54
2018-12-29T02:08:10.301Z,0.51
2018-12-29T02:10:59.148Z,0.49
2018-12-29T02:13:47.963Z,-1.08
2018-12-29T02:16:36.777Z,0.75
2018-12-29T02:19:06.235Z,0.57
2018-12-29T02:21:55.063Z,0.60
2018-12-29T02:24:36.581Z,-1.29
2018-12-29T02:27:25.396Z,0.57
2018-12-29T02:30:14.192Z,0.67
2018-12-29T02:33:03.009Z,0.72
2018-12-29T02:36:10.826Z,0.78
2018-12-29T02:38:59.639Z,0.73
2018-12-29T02:41:48.505Z,-0.18
2018-12-29T02:44:37.310Z,0.82
2018-12-29T02:47:26.139Z,0.72
2018-12-29T02:53:09.536Z,0.56
2018-12-29T02:55:58.358Z,0.70
2018-12-29T02:58:47.152Z,0.76
2018-12-29T03:01:35.976Z,-1.24
2018-12-29T03:04:24.784Z,0.57
2018-12-29T03:07:13.594Z,-1.15
2018-12-29T03:10:02.421Z,0.58
2018-12-29T03:12:51.206Z,0.67
2018-12-29T03:15:41.691Z,0.79
2018-12-29T03:18:30.545Z,0.83
2018-12-29T03:21:19.639Z,0.93
2018-12-29T03:24:08.451Z,0.78
2018-12-29T03:26:57.343Z,0.78
2018-12-29T03:29:46.129Z,0.68
2018-12-29T03:32:34.960Z,-1.04
2018-12-29T03:35:23.760Z,0.89
2018-12-29T03:38:12.572Z,0.34
2018-12-29T03:41:01.459Z,0.98
2018-12-29T03:43:50.269Z,0.90
2018-12-29T03:46:39.095Z,1.05
2018-12-29T03:49:27.902Z,1.07
2018-12-29T03:52:16.722Z,1.09
2018-12-29T03:55:05.682Z,-0.78
2018-12-29T03:57:54.488Z,0.91
2018-12-29T04:00:43.299Z,0.97
2018-12-29T04:03:32.120Z,0.82
2018-12-29T04:06:20.918Z,0.72
2018-12-29T04:09:48.422Z,0.81
2018-12-29T04:12:37.281Z,0.85
2018-12-29T04:15:26.108Z,-1.02
2018-12-29T04:18:14.900Z,0.73
2018-12-29T04:21:03.733Z,0.76
2018-12-29T04:23:52.595Z,0.70
2018-12-29T04:26:34.034Z,0.66
2018-12-29T04:29:03.505Z,0.69
2018-12-29T04:31:52.296Z,0.72
2018-12-29T04:34:41.114Z,-0.76
2018-12-29T04:37:29.915Z,0.80
2018-12-29T04:40:18.740Z,-0.61
2018-12-29T04:43:07.543Z,0.96
2018-12-29T04:45:56.683Z,0.50
2018-12-29T04:48:45.483Z,1.09
2018-12-29T04:51:34.332Z,1.19
2018-12-29T04:54:23.126Z,1.14
2018-12-29T04:57:11.955Z,1.04
2018-12-29T05:00:00.771Z,1.11
2018-12-29T05:02:49.560Z,1.23
2018-12-29T05:05:38.388Z,1.26
2018-12-29T05:08:27.261Z,1.30
2018-12-29T05:11:16.091Z,-0.30
2018-12-29T05:17:12.723Z,-0.37
2018-12-29T05:20:01.512Z,-0.44
2018-12-29T05:22:43.478Z,1.24
2018-12-29T05:25:32.276Z,-0.38
2018-12-29T05:28:21.095Z,1.39
2018-12-29T05:31:09.958Z,1.44
2018-12-29T05:33:58.787Z,1.45
2018-12-29T05:36:47.579Z,1.46
2018-12-29T05:39:36.393Z,1.47
2018-12-29T05:42:25.192Z,1.51
2018-12-29T05:45:14.289Z,1.51
2018-12-29T05:48:03.182Z,1.54
2018-12-29T05:50:51.978Z,0.90
2018-12-29T05:53:40.803Z,1.62
2018-12-29T05:56:29.608Z,1.59
2018-12-29T05:59:18.419Z,1.62
2018-12-29T06:02:07.215Z,1.68
2018-12-29T06:04:56.034Z,1.70
2018-12-29T06:07:44.906Z,0.96
2018-12-29T06:10:33.693Z,1.60
2018-12-29T06:13:22.490Z,1.37
2018-12-29T06:16:11.305Z,1.26
2018-12-29T06:19:00.151Z,1.29
2018-12-29T06:21:48.950Z,-0.18
2018-12-29T06:24:30.667Z,1.38
2018-12-29T06:27:19.467Z,1.30
2018-12-29T06:30:08.356Z,1.20
2018-12-29T06:32:57.181Z,1.19
2018-12-29T06:35:46.015Z,1.11
2018-12-29T06:38:34.810Z,1.10
2018-12-29T06:41:23.900Z,1.04
2018-12-29T06:44:12.693Z,1.11
2018-12-29T06:47:01.524Z,0.61
2018-12-29T06:49:50.310Z,0.98
2018-12-29T06:52:39.142Z,0.96
2018-12-29T06:55:27.954Z,1.04
2018-12-29T06:58:16.770Z,1.05
2018-12-29T07:01:05.562Z,1.01
2018-12-29T07:03:54.454Z,1.04
2018-12-29T07:06:43.260Z,1.11
2018-12-29T07:09:32.087Z,-0.81
2018-12-29T07:12:20.872Z,1.06
2018-12-29T07:15:09.721Z,-0.54
2018-12-29T07:17:58.507Z,1.23
2018-12-29T07:23:40.150Z,1.15
2018-12-29T07:26:28.956Z,1.26
2018-12-29T07:29:17.747Z,1.38
2018-12-29T07:32:06.574Z,1.38
2018-12-29T07:38:10.224Z,0.96
2018-12-29T07:40:59.043Z,1.49
2018-12-29T07:43:47.864Z,1.51
2018-12-29T07:46:36.666Z,1.56
2018-12-29T07:49:25.475Z,0.63
2018-12-29T07:52:14.280Z,1.62
2018-12-29T07:55:03.102Z,1.58
2018-12-29T07:57:51.897Z,1.46
2018-12-29T08:00:40.729Z,-0.12
2018-12-29T08:03:29.518Z,1.11
2018-12-29T08:06:18.346Z,0.62
2018-12-29T08:09:07.990Z,1.08
2018-12-29T08:11:56.811Z,1.11
2018-12-29T08:14:45.638Z,1.20
2018-12-29T08:17:34.423Z,1.36
2018-12-29T08:20:23.255Z,-0.16
2018-12-29T08:23:12.054Z,1.32
2018-12-29T08:25:53.629Z,1.42
2018-12-29T08:28:42.432Z,1.46
2018-12-29T08:31:31.275Z,1.44
2018-12-29T08:34:20.040Z,1.45
2018-12-29T08:37:08.852Z,1.49
2018-12-29T08:39:57.658Z,1.36
2018-12-29T08:42:46.476Z,1.51
2018-12-29T08:45:35.280Z,1.49
2018-12-29T08:48:24.092Z,1.51
2018-12-29T08:51:12.896Z,1.53
2018-12-29T08:54:01.764Z,1.45
2018-12-29T08:56:50.566Z,1.23
2018-12-29T08:59:39.379Z,1.31
2018-12-29T09:02:28.194Z,1.43
2018-12-29T09:05:17.011Z,0.13
2018-12-29T09:08:05.812Z,1.37
2018-12-29T09:10:54.645Z,1.31
2018-12-29T09:13:43.462Z,1.28
2018-12-29T09:16:32.278Z,1.25
2018-12-29T09:19:27.193Z,0.33
2018-12-29T09:22:11.627Z,1.38
2018-12-29T09:24:53.161Z,-0.19
2018-12-29T09:27:41.966Z,1.50
2018-12-29T09:30:30.798Z,-0.37
2018-12-29T09:33:19.582Z,1.34
2018-12-29T09:36:08.393Z,0.42
2018-12-29T09:38:57.216Z,1.54
2018-12-29T09:41:46.008Z,1.33
2018-12-29T09:44:34.835Z,1.63
2018-12-29T09:47:23.658Z,1.73
2018-12-29T09:50:12.461Z,1.88
2018-12-29T09:53:01.261Z,1.93
2018-12-29T09:55:50.064Z,2.04
2018-12-29T09:58:38.869Z,1.47
2018-12-29T10:01:27.677Z,2.06
2018-12-29T10:04:16.471Z,1.88
2018-12-29T10:07:05.317Z,1.98
2018-12-29T10:09:54.149Z,2.02
2018-12-29T10:12:42.963Z,2.06
2018-12-29T10:19:00.358Z,2.20
2018-12-29T10:21:49.185Z,2.21
2018-12-29T10:24:30.784Z,2.20
2018-12-29T10:27:19.611Z,2.29
2018-12-29T10:30:08.399Z,2.37
2018-12-29T10:32:57.261Z,1.82
2018-12-29T10:35:46.058Z,2.31
2018-12-29T10:38:34.911Z,2.46
2018-12-29T10:41:23.748Z,2.57
2018-12-29T10:44:12.604Z,2.62
2018-12-29T10:47:01.753Z,1.09
2018-12-29T10:49:50.562Z,2.55
2018-12-29T10:52:39.453Z,2.60
2018-12-29T10:55:28.264Z,2.66
2018-12-29T10:58:17.064Z,2.66
2018-12-29T11:01:05.952Z,2.79
2018-12-29T11:03:54.753Z,2.70
2018-12-29T11:06:43.576Z,2.58
2018-12-29T11:09:32.368Z,2.60
2018-12-29T11:12:21.212Z,2.51
2018-12-29T11:15:29.040Z,2.50
2018-12-29T11:18:17.835Z,2.52
2018-12-29T11:21:06.648Z,2.57
2018-12-29T11:23:55.509Z,2.22
2018-12-29T11:26:35.336Z,2.89
2018-12-29T11:29:24.138Z,2.91
2018-12-29T11:32:12.994Z,2.90
2018-12-29T11:35:02.112Z,2.79
2018-12-29T11:37:50.918Z,2.72
2018-12-29T11:40:39.717Z,2.74
2018-12-29T11:43:28.533Z,1.02
2018-12-29T11:46:17.350Z,2.61
2018-12-29T11:49:06.231Z,2.07
2018-12-29T11:51:55.033Z,2.57
2018-12-29T11:54:43.848Z,2.59
2018-12-29T11:57:32.661Z,2.57
2018-12-29T12:00:21.482Z,2.58
2018-12-29T12:06:04.261Z,2.60
2018-12-29T12:08:53.040Z,2.57
2018-12-29T12:11:41.840Z,1.09
2018-12-29T12:14:30.655Z,2.57
2018-12-29T12:17:19.447Z,1.89
2018-12-29T12:20:08.264Z,2.66
2018-12-29T12:22:57.057Z,2.62
2018-12-29T12:25:45.964Z,2.66
2018-12-29T12:28:27.401Z,2.65
2018-12-29T12:31:16.210Z,2.77
2018-12-29T12:34:05.002Z,2.71
2018-12-29T12:36:55.539Z,2.79
2018-12-29T12:39:44.333Z,2.71
2018-12-29T12:42:33.164Z,0.90
2018-12-29T12:45:21.960Z,2.80
2018-12-29T12:48:10.772Z,1.89
2018-12-29T12:50:59.565Z,2.88
2018-12-29T12:53:48.384Z,1.22
2018-12-29T12:56:37.205Z,2.84
2018-12-29T12:59:26.176Z,1.33
2018-12-29T13:02:14.991Z,3.01
2018-12-29T13:05:03.878Z,3.03
2018-12-29T13:07:52.698Z,2.02
2018-12-29T13:10:43.240Z,3.19
2018-12-29T13:13:32.045Z,3.18
2018-12-29T13:16:20.881Z,3.24
2018-12-29T13:19:09.652Z,1.64
2018-12-29T13:21:58.472Z,3.30
2018-12-29T13:24:39.685Z,1.58
2018-12-29T13:27:28.508Z,3.24
2018-12-29T13:30:17.645Z,1.47
2018-12-29T13:33:06.476Z,2.99
2018-12-29T13:35:55.270Z,3.04
2018-12-29T13:38:44.098Z,3.00
2018-12-29T13:41:32.889Z,2.95
2018-12-29T13:44:21.707Z,1.21
2018-12-29T13:47:10.523Z,2.82
2018-12-29T13:49:59.354Z,1.63
2018-12-29T13:52:48.144Z,2.99
2018-12-29T13:55:36.963Z,3.10
2018-12-29T13:58:25.757Z,3.15
2018-12-29T14:01:14.659Z,3.13
2018-12-29T14:04:03.450Z,3.24
2018-12-29T14:06:53.993Z,3.21
2018-12-29T14:09:42.806Z,3.17
2018-12-29T14:12:33.315Z,1.52
2018-12-29T14:15:22.152Z,3.34
2018-12-29T14:18:11.003Z,3.29
2018-12-29T14:20:59.830Z,3.24
2018-12-29T14:23:48.624Z,3.22
2018-12-29T14:26:37.456Z,1.49
2018-12-29T14:29:26.261Z,3.35
2018-12-29T14:32:15.060Z,3.32
2018-12-29T14:35:03.940Z,3.37
2018-12-29T14:37:52.731Z,3.41
2018-12-29T14:40:41.561Z,1.76
2018-12-29T14:43:30.352Z,3.28
2018-12-29T14:46:19.189Z,1.60
2018-12-29T14:49:07.983Z,3.19
2018-12-29T14:51:56.803Z,3.17
2018-12-29T14:54:45.600Z,2.95
2018-12-29T14:57:34.421Z,2.79
2018-12-29T15:00:04.346Z,2.81
2018-12-29T15:02:53.162Z,2.63
2018-12-29T15:08:49.715Z,0.85
2018-12-29T15:11:38.574Z,2.66
2018-12-29T15:17:22.149Z,2.59
2018-12-29T15:20:10.965Z,2.72
2018-12-29T15:22:52.159Z,1.69
2018-12-29T15:25:40.974Z,2.78
2018-12-29T15:28:48.890Z,1.43
2018-12-29T15:31:37.730Z,3.02
2018-12-29T15:34:26.536Z,3.00
2018-12-29T15:37:15.346Z,3.00
2018-12-29T15:43:32.799Z,3.04
2018-12-29T15:46:21.615Z,2.94
2018-12-29T15:49:10.441Z,2.88
2018-12-29T15:51:59.256Z,1.25
2018-12-29T15:54:48.134Z,2.96
2018-12-29T15:57:36.936Z,3.05
2018-12-29T16:00:25.851Z,2.95
2018-12-29T16:03:14.655Z,3.02
2018-12-29T16:06:03.463Z,3.00
2018-12-29T16:08:52.260Z,2.98
2018-12-29T16:11:42.801Z,2.97
2018-12-29T16:14:50.639Z,2.88
2018-12-29T16:17:39.420Z,2.79
2018-12-29T16:20:28.239Z,2.79
2018-12-29T16:23:18.766Z,2.78
2018-12-29T16:26:02.398Z,2.85
2018-12-29T16:28:51.188Z,2.80
2018-12-29T16:31:40.006Z,2.85
2018-12-29T16:34:30.536Z,2.77
2018-12-29T16:37:19.416Z,1.12
2018-12-29T16:40:08.233Z,2.74
2018-12-29T16:42:57.035Z,2.65
2018-12-29T16:45:48.363Z,2.58
2018-12-29T16:48:38.118Z,1.57
2018-12-29T16:51:26.929Z,2.74
2018-12-29T16:54:15.723Z,2.80
2018-12-29T16:57:23.628Z,2.87
2018-12-29T17:00:12.427Z,2.87
2018-12-29T17:03:01.237Z,2.90
2018-12-29T17:08:57.793Z,2.99
2018-12-29T17:11:52.327Z,1.33
2018-12-29T17:14:37.231Z,2.99
2018-12-29T17:17:26.061Z,2.47
2018-12-29T17:20:14.866Z,3.07
2018-12-29T17:22:56.495Z,3.10
2018-12-29T17:25:45.302Z,3.12
2018-12-29T17:28:34.129Z,1.27
2018-12-29T17:31:22.948Z,3.17
2018-12-29T17:34:11.759Z,3.22
2018-12-29T17:37:00.552Z,3.27
2018-12-29T17:39:49.368Z,3.33
2018-12-29T17:42:38.202Z,3.38
2018-12-29T17:45:28.710Z,3.41
2018-12-29T17:48:19.235Z,3.46
2018-12-29T17:51:08.049Z,3.58
2018-12-29T17:53:58.572Z,3.72
2018-12-29T17:56:49.106Z,3.75
2018-12-29T17:59:37.908Z,1.82
2018-12-29T18:05:21.603Z,1.74
2018-12-29T18:08:10.372Z,3.69
2018-12-29T18:10:59.251Z,2.01
2018-12-29T18:16:57.728Z,3.88
2018-12-29T18:19:46.652Z,3.86
2018-12-29T18:25:22.719Z,3.98
2018-12-29T18:28:11.557Z,4.03
2018-12-29T18:31:00.446Z,4.05
2018-12-29T18:33:49.315Z,4.16
2018-12-29T18:36:38.551Z,4.13
2018-12-29T18:39:27.436Z,4.17
2018-12-29T18:42:16.422Z,4.22
2018-12-29T18:48:20.118Z,4.32
2018-12-29T18:51:10.692Z,4.33
2018-12-29T18:54:01.596Z,4.40
2018-12-29T18:56:52.168Z,4.46
2018-12-29T18:59:41.127Z,4.52
2018-12-29T19:02:30.009Z,4.51
2018-12-29T19:05:18.926Z,4.64
2018-12-29T19:08:07.800Z,4.65
2018-12-29T19:10:56.667Z,4.63
2018-12-29T19:13:47.293Z,3.86
2018-12-29T19:16:37.828Z,4.62
2018-12-29T19:19:26.723Z,3.18
2018-12-29T19:22:15.521Z,3.76
2018-12-29T19:24:57.396Z,4.76
2018-12-29T19:27:46.191Z,4.74
2018-12-29T19:30:35.010Z,4.74
2018-12-29T19:33:25.543Z,4.80
2018-12-29T19:36:16.062Z,3.01
2018-12-29T19:39:26.541Z,4.86
2018-12-29T19:42:15.342Z,4.83
2018-12-29T19:45:04.230Z,4.28
2018-12-29T19:47:53.018Z,4.80
2018-12-29T19:50:43.578Z,4.84
2018-12-29T19:53:34.122Z,4.87
2018-12-29T19:56:22.935Z,3.87
2018-12-29T19:59:11.724Z,4.90
2018-12-29T20:02:00.657Z,4.80
2018-12-29T20:04:49.445Z,3.15
2018-12-29T20:07:40.049Z,4.84
2018-12-29T20:10:28.943Z,3.62
2018-12-29T20:13:17.881Z,4.90
2018-12-29T20:16:06.680Z,4.91
2018-12-29T20:18:55.502Z,4.94
2018-12-29T20:21:44.321Z,4.99
2018-12-29T20:24:25.746Z,5.00
2018-12-29T20:27:14.712Z,4.02
2018-12-29T20:30:22.664Z,5.07
2018-12-29T20:33:30.683Z,5.07
2018-12-29T20:36:19.475Z,5.16
2018-12-29T20:39:08.314Z,5.20
2018-12-29T20:41:57.176Z,5.21
2018-12-29T20:44:46.004Z,3.76
2018-12-29T20:47:41.601Z,3.54
2018-12-29T20:50:49.643Z,5.23
2018-12-29T20:53:38.611Z,5.27
2018-12-29T20:59:24.190Z,5.43
2018-12-29T21:02:12.993Z,5.43
2018-12-29T21:05:01.883Z,5.42
2018-12-29T21:07:51.193Z,5.47
2018-12-29T21:10:40.427Z,5.54
2018-12-29T21:13:30.899Z,5.58
2018-12-29T21:16:19.731Z,5.51
2018-12-29T21:19:29.476Z,5.57
2018-12-29T21:22:19.064Z,5.68
2018-12-29T21:25:08.019Z,5.74
2018-12-29T21:27:56.865Z,5.75
2018-12-29T21:31:05.260Z,5.30
2018-12-29T21:33:56.171Z,5.91
2018-12-29T21:37:05.965Z,5.55
2018-12-29T21:39:54.869Z,6.10
2018-12-29T21:42:44.138Z,6.36
2018-12-29T21:45:33.082Z,6.46
2018-12-29T21:48:21.952Z,6.52
2018-12-29T21:51:10.780Z,6.56
2018-12-29T21:53:59.617Z,6.91
2018-12-29T21:56:48.523Z,6.92
2018-12-29T21:59:37.422Z,6.68
2018-12-29T22:02:26.214Z,6.89
2018-12-29T22:05:15.024Z,6.84
2018-12-29T22:08:05.545Z,6.80
2018-12-29T22:10:54.395Z,6.79
2018-12-29T22:13:44.966Z,6.79
2018-12-29T22:16:33.852Z,5.06
2018-12-29T22:19:24.369Z,6.77
2018-12-29T22:22:13.184Z,6.73
2018-12-29T22:24:56.949Z,6.00
2018-12-29T22:27:45.765Z,6.64
2018-12-29T22:33:42.385Z,6.56
2018-12-29T22:36:31.188Z,6.47
2018-12-29T22:39:20.008Z,4.92
2018-12-29T22:42:08.816Z,6.51
2018-12-29T22:44:57.606Z,6.55
2018-12-29T22:47:48.152Z,6.59
2018-12-29T22:50:41.040Z,6.49
2018-12-29T22:53:27.560Z,6.47
2018-12-29T22:59:24.119Z,6.28
2018-12-29T23:02:12.908Z,6.51
2018-12-29T23:05:01.719Z,6.45
2018-12-29T23:10:58.266Z,6.51
2018-12-29T23:13:47.105Z,5.73
2018-12-29T23:16:35.912Z,6.47
2018-12-29T23:19:24.718Z,6.38
2018-12-29T23:25:08.442Z,6.28
2018-12-29T23:27:51.793Z,6.21
2018-12-29T23:30:40.595Z,6.15
2018-12-29T23:33:29.410Z,6.09
2018-12-29T23:36:18.207Z,6.10
2018-12-29T23:39:07.022Z,6.01
2018-12-29T23:41:55.816Z,6.06
2018-12-29T23:44:44.626Z,6.04
2018-12-29T23:47:33.427Z,5.97
2018-12-29T23:50:22.291Z,5.99
2018-12-29T23:53:12.806Z,5.99
2018-12-29T23:56:03.290Z,5.99
2018-12-29T23:58:52.101Z,5.95
